KCBE/CBE METAR and TAF weather

Enter ICAO airport designator
Station Type Date Time Source
KCBE METAR 2022/11/27 08:35 UTC NOAA

KCBE 270835Z AUTO 00000KT 10SM CLR 02/M01 A2994 RMK AO2 T00211011


Station Type Date Time Source
KCBE Decoded METAR 2022/11/27 08:35 UTC NOAA

Cumberland, Greater Cumberland Regional Airport, MD, United States (KCBE) 39-36-55N 078-45-39W
Nov 27, 2022 - 03:35 AM EST / 2022.11.27 0835 UTC
Wind: Calm:0
Visibility: 10 mile(s):0
Sky conditions: clear
Temperature: 35.8 F (2.1 C)
Dew Point: 30.0 F (-1.1 C)
Relative Humidity: 79%
Pressure (altimeter): 29.94 in. Hg (1013 hPa)
ob: KCBE 270835Z AUTO 00000KT 10SM CLR 02/M01 A2994 RMK AO2 T00211011
cycle: 8

Station Type Date Time Source
KCBE TAF UTC NOAA

Error!

Example: see airport list